createdAt,value
2022-12-11T00:01:38.711Z,12.98
2022-12-11T00:04:06.069Z,13.60
2022-12-11T00:06:35.960Z,14.43
2022-12-11T00:09:03.264Z,12.80
2022-12-11T00:11:30.561Z,14.13
2022-12-11T00:13:57.759Z,13.48
2022-12-11T00:16:27.143Z,13.13
2022-12-11T00:21:21.858Z,13.18
2022-12-11T00:23:49.075Z,13.30
2022-12-11T00:26:16.759Z,13.35
2022-12-11T00:28:44.835Z,12.95
2022-12-11T00:31:16.891Z,13.63
2022-12-11T00:33:45.071Z,13.32
2022-12-11T00:36:13.683Z,13.10
2022-12-11T00:38:40.917Z,13.07
2022-12-11T00:41:08.230Z,14.40
2022-12-11T00:43:35.691Z,12.82
2022-12-11T00:46:03.302Z,13.27
2022-12-11T00:48:31.023Z,12.88
2022-12-11T00:50:58.298Z,13.25
2022-12-11T00:53:25.848Z,13.77
2022-12-11T00:55:53.180Z,12.93
2022-12-11T00:58:20.560Z,13.60
2022-12-11T01:00:49.821Z,14.10
2022-12-11T01:03:17.651Z,13.82
2022-12-11T01:05:57.053Z,14.00
2022-12-11T01:08:24.515Z,14.07
2022-12-11T01:10:51.787Z,13.57
2022-12-11T01:13:19.162Z,13.52
2022-12-11T01:15:46.463Z,14.15
2022-12-11T01:18:15.906Z,13.35
2022-12-11T01:20:43.962Z,15.60
2022-12-11T01:23:12.998Z,13.30
2022-12-11T01:25:40.772Z,14.45
2022-12-11T01:28:08.185Z,14.98
2022-12-11T01:30:36.623Z,15.10
2022-12-11T01:33:04.368Z,14.25
2022-12-11T01:35:31.632Z,13.60
2022-12-11T01:37:59.374Z,13.55
2022-12-11T01:40:26.603Z,15.23
2022-12-11T01:42:53.861Z,14.32
2022-12-11T01:45:26.852Z,14.32
2022-12-11T01:47:57.359Z,14.38
2022-12-11T01:50:25.499Z,15.00
2022-12-11T01:52:53.037Z,15.23
2022-12-11T01:55:21.235Z,15.05
2022-12-11T01:57:50.330Z,15.00
2022-12-11T02:00:18.002Z,15.48
2022-12-11T02:02:45.380Z,15.73
2022-12-11T02:05:13.149Z,15.70
2022-12-11T02:07:52.001Z,15.25
2022-12-11T02:10:19.336Z,14.85
2022-12-11T02:12:52.948Z,13.95
2022-12-11T02:15:31.327Z,14.38
2022-12-11T02:18:03.564Z,15.70
2022-12-11T02:20:33.821Z,14.57
2022-12-11T02:23:10.206Z,14.60
2022-12-11T02:25:40.492Z,15.82
2022-12-11T02:28:26.664Z,13.68
2022-12-11T02:30:56.251Z,14.82
2022-12-11T02:33:27.344Z,14.85
2022-12-11T02:35:55.516Z,14.85
2022-12-11T02:38:42.480Z,14.40
2022-12-11T02:41:11.359Z,14.73
2022-12-11T02:43:39.339Z,14.52
2022-12-11T02:46:08.405Z,13.80
2022-12-11T02:48:36.959Z,14.70
2022-12-11T02:51:05.908Z,13.85
2022-12-11T02:53:35.528Z,13.98
2022-12-11T02:56:11.270Z,14.23
2022-12-11T02:58:43.008Z,14.48
2022-12-11T03:01:10.895Z,14.73
2022-12-11T03:03:38.223Z,14.38
2022-12-11T03:06:05.646Z,14.32
2022-12-11T03:08:33.385Z,15.50
2022-12-11T03:11:00.612Z,14.27
2022-12-11T03:13:27.879Z,14.43
2022-12-11T03:15:55.141Z,15.32
2022-12-11T03:18:22.363Z,14.70
2022-12-11T03:20:59.336Z,13.77
2022-12-11T03:23:26.538Z,13.90
2022-12-11T03:26:17.175Z,13.15
2022-12-11T03:28:44.327Z,14.10
2022-12-11T03:31:13.570Z,12.73
2022-12-11T03:33:42.704Z,13.90
2022-12-11T03:36:15.293Z,14.35
2022-12-11T03:38:46.895Z,13.77
2022-12-11T03:41:15.216Z,13.77
2022-12-11T03:43:42.605Z,13.35
2022-12-11T03:46:10.905Z,13.32
2022-12-11T03:48:39.200Z,13.30
2022-12-11T03:51:07.099Z,14.00
2022-12-11T03:53:36.211Z,14.02
2022-12-11T03:56:07.462Z,14.05
2022-12-11T03:58:34.873Z,14.68
2022-12-11T04:01:02.262Z,13.50
2022-12-11T04:03:29.580Z,13.45
2022-12-11T04:05:57.097Z,12.68
2022-12-11T04:08:24.425Z,13.95
2022-12-11T04:11:12.259Z,13.48
2022-12-11T04:13:40.405Z,14.48
2022-12-11T04:16:07.807Z,12.77
2022-12-11T04:18:54.104Z,13.43
2022-12-11T04:21:40.204Z,12.90
2022-12-11T04:24:17.063Z,12.90
2022-12-11T04:26:47.997Z,12.38
2022-12-11T04:29:15.885Z,12.55
2022-12-11T04:31:43.181Z,12.75
2022-12-11T04:34:10.384Z,12.70
2022-12-11T04:36:37.921Z,13.00
2022-12-11T04:39:06.192Z,12.60
2022-12-11T04:41:37.168Z,12.05
2022-12-11T04:44:04.754Z,11.60
2022-12-11T04:46:33.300Z,12.02
2022-12-11T04:49:00.708Z,11.60
2022-12-11T04:51:28.179Z,12.13
2022-12-11T04:53:55.648Z,12.90
2022-12-11T04:56:22.909Z,12.65
2022-12-11T04:58:50.239Z,12.07
2022-12-11T05:01:18.853Z,11.85
2022-12-11T05:03:46.379Z,12.27
2022-12-11T05:06:13.984Z,11.85
2022-12-11T05:08:42.567Z,11.80
2022-12-11T05:11:11.642Z,11.70
2022-12-11T05:13:38.922Z,11.90
2022-12-11T05:16:07.316Z,11.63
2022-12-11T05:18:34.798Z,11.70
2022-12-11T05:21:06.454Z,11.80
2022-12-11T05:23:33.969Z,11.10
2022-12-11T05:26:02.839Z,11.23
2022-12-11T05:28:33.327Z,11.35
2022-12-11T05:31:02.343Z,10.98
2022-12-11T05:33:29.776Z,11.02
2022-12-11T05:35:57.017Z,12.07
2022-12-11T05:38:25.438Z,10.77
2022-12-11T05:40:57.209Z,11.38
2022-12-11T05:43:24.564Z,10.75
2022-12-11T05:45:51.798Z,11.90
2022-12-11T05:48:19.050Z,11.35
2022-12-11T05:50:46.337Z,10.52
2022-12-11T05:53:13.582Z,11.23
2022-12-11T05:55:40.851Z,10.38
2022-12-11T05:58:08.096Z,11.50
2022-12-11T06:00:36.327Z,11.00
2022-12-11T06:03:03.797Z,11.60
2022-12-11T06:05:31.161Z,10.80
2022-12-11T06:07:58.403Z,10.70
2022-12-11T06:10:25.699Z,10.60
2022-12-11T06:12:52.907Z,10.32
2022-12-11T06:15:20.122Z,10.48
2022-12-11T06:17:47.415Z,11.02
2022-12-11T06:20:14.999Z,10.43
2022-12-11T06:22:42.257Z,10.32
2022-12-11T06:25:10.029Z,10.32
2022-12-11T06:27:37.423Z,10.15
2022-12-11T06:30:04.821Z,9.93
2022-12-11T06:32:32.125Z,10.43
2022-12-11T06:34:59.384Z,10.05
2022-12-11T06:37:26.589Z,10.32
2022-12-11T06:39:53.863Z,10.70
2022-12-11T06:42:21.075Z,9.70
2022-12-11T06:44:48.347Z,9.73
2022-12-11T06:47:15.531Z,10.13
2022-12-11T06:49:43.232Z,9.95
2022-12-11T06:52:15.011Z,10.63
2022-12-11T06:54:45.445Z,9.85
2022-12-11T06:57:12.741Z,10.35
2022-12-11T06:59:40.169Z,10.20
2022-12-11T07:02:07.627Z,10.77
2022-12-11T07:04:34.983Z,10.02
2022-12-11T07:07:02.164Z,10.93
2022-12-11T07:09:29.389Z,9.82
2022-12-11T07:11:56.934Z,10.93
2022-12-11T07:14:24.516Z,10.95
2022-12-11T07:16:51.883Z,9.57
2022-12-11T07:19:19.285Z,10.80
2022-12-11T07:21:46.766Z,10.02
2022-12-11T07:24:14.025Z,11.05
2022-12-11T07:26:41.267Z,10.52
2022-12-11T07:29:08.523Z,11.60
2022-12-11T07:31:35.818Z,10.95
2022-12-11T07:34:04.403Z,10.85
2022-12-11T07:36:31.655Z,10.63
2022-12-11T07:38:59.667Z,10.77
2022-12-11T07:41:28.804Z,11.15
2022-12-11T07:43:56.737Z,11.93
2022-12-11T07:46:24.846Z,11.07
2022-12-11T07:48:52.416Z,11.20
2022-12-11T07:51:22.824Z,11.93
2022-12-11T07:53:51.035Z,12.30
2022-12-11T07:56:19.502Z,11.25
2022-12-11T07:58:46.977Z,11.23
2022-12-11T08:01:21.459Z,11.82
2022-12-11T08:03:49.000Z,12.30
2022-12-11T08:06:16.400Z,11.35
2022-12-11T08:08:44.200Z,11.35
2022-12-11T08:11:12.655Z,10.98
2022-12-11T08:13:40.490Z,11.38
2022-12-11T08:16:08.740Z,12.00
2022-12-11T08:18:37.310Z,11.85
2022-12-11T08:21:12.213Z,11.77
2022-12-11T08:23:39.768Z,11.60
2022-12-11T08:26:08.378Z,11.73
2022-12-11T08:28:35.920Z,11.93
2022-12-11T08:31:06.796Z,11.23
2022-12-11T08:33:34.231Z,12.32
2022-12-11T08:36:05.093Z,11.55
2022-12-11T08:38:32.370Z,13.50
2022-12-11T08:40:59.753Z,12.48
2022-12-11T08:43:26.918Z,12.50
2022-12-11T08:45:54.237Z,11.35
2022-12-11T08:48:21.599Z,12.80
2022-12-11T08:50:49.070Z,11.90
2022-12-11T08:53:16.250Z,12.70
2022-12-11T08:55:43.496Z,12.30
2022-12-11T08:58:10.753Z,12.43
2022-12-11T09:00:37.980Z,12.13
2022-12-11T09:03:09.759Z,12.45
2022-12-11T09:05:40.060Z,13.48
2022-12-11T09:08:07.389Z,12.45
2022-12-11T09:10:34.663Z,12.05
2022-12-11T09:13:01.935Z,11.52
2022-12-11T09:15:29.453Z,11.98
2022-12-11T09:17:56.720Z,12.57
2022-12-11T09:20:23.907Z,11.70
2022-12-11T09:22:51.199Z,12.43
2022-12-11T09:25:18.468Z,12.63
2022-12-11T09:27:45.727Z,11.73
2022-12-11T09:30:13.202Z,12.48
2022-12-11T09:32:40.477Z,12.60
2022-12-11T09:35:08.500Z,11.10
2022-12-11T09:37:36.028Z,11.43
2022-12-11T09:40:07.607Z,11.93
2022-12-11T09:42:37.973Z,11.73
2022-12-11T09:45:07.042Z,12.77
2022-12-11T09:47:38.847Z,13.13
2022-12-11T09:50:12.175Z,11.40
2022-12-11T09:52:48.569Z,11.30
2022-12-11T09:55:18.199Z,11.75
2022-12-11T10:00:19.883Z,11.80
2022-12-11T10:02:59.334Z,11.13
2022-12-11T10:05:38.321Z,10.75
2022-12-11T10:08:05.706Z,11.85
2022-12-11T10:10:36.007Z,11.07
2022-12-11T10:13:17.932Z,10.80
2022-12-11T10:15:56.799Z,12.45
2022-12-11T10:18:25.566Z,12.40
2022-12-11T10:20:53.399Z,11.05
2022-12-11T10:23:22.844Z,10.93
2022-12-11T10:26:16.035Z,11.65
2022-12-11T10:28:43.484Z,10.63
2022-12-11T10:31:13.844Z,9.98
2022-12-11T10:33:59.914Z,10.82
2022-12-11T10:36:37.422Z,11.68
2022-12-11T10:39:11.457Z,11.32
2022-12-11T10:41:40.361Z,10.93
2022-12-11T10:44:18.355Z,10.23
2022-12-11T10:46:47.681Z,11.23
2022-12-11T10:49:26.567Z,10.85
2022-12-11T10:51:55.945Z,11.38
2022-12-11T10:54:29.310Z,10.63
2022-12-11T10:56:56.842Z,10.48
2022-12-11T10:59:33.727Z,10.55
2022-12-11T11:02:01.168Z,11.18
2022-12-11T11:04:37.325Z,10.60
2022-12-11T11:09:36.279Z,10.30
2022-12-11T11:12:07.959Z,10.57
2022-12-11T11:14:35.588Z,10.38
2022-12-11T11:17:02.822Z,10.32
2022-12-11T11:19:31.245Z,10.35
2022-12-11T11:21:59.853Z,10.20
2022-12-11T11:24:41.247Z,10.90
2022-12-11T11:27:20.673Z,10.43
2022-12-11T11:29:52.933Z,9.98
2022-12-11T11:32:23.085Z,9.82
2022-12-11T11:34:50.372Z,10.80
2022-12-11T11:37:31.795Z,10.68
2022-12-11T11:40:02.763Z,9.98
2022-12-11T11:42:38.447Z,10.18
2022-12-11T11:45:06.077Z,9.32
2022-12-11T11:47:38.587Z,10.27
2022-12-11T11:50:25.687Z,10.00
2022-12-11T11:53:13.218Z,10.43
2022-12-11T11:55:49.886Z,8.98
2022-12-11T11:58:22.827Z,9.00
2022-12-11T12:00:50.612Z,8.85
2022-12-11T12:03:19.367Z,9.07
2022-12-11T12:05:51.626Z,10.20
2022-12-11T12:08:27.972Z,9.43
2022-12-11T12:11:08.075Z,10.07
2022-12-11T12:13:50.835Z,8.23
2022-12-11T12:19:38.934Z,9.10
2022-12-11T12:22:14.578Z,8.88
2022-12-11T12:24:49.456Z,9.48
2022-12-11T12:27:51.578Z,9.38
2022-12-11T12:30:22.027Z,9.05
2022-12-11T12:32:50.434Z,8.40
2022-12-11T12:35:17.701Z,9.68
2022-12-11T12:37:59.618Z,8.70
2022-12-11T12:40:29.904Z,8.68
2022-12-11T12:42:57.091Z,9.43
2022-12-11T12:45:24.971Z,9.40
2022-12-11T12:47:53.655Z,9.25
2022-12-11T12:50:22.588Z,9.43
2022-12-11T12:52:51.294Z,9.88
2022-12-11T12:55:24.244Z,9.05
2022-12-11T12:57:53.479Z,8.40
2022-12-11T13:00:39.758Z,8.82
2022-12-11T13:03:13.412Z,9.90
2022-12-11T13:05:42.852Z,9.23
2022-12-11T13:08:11.290Z,8.93
2022-12-11T13:10:40.939Z,9.88
2022-12-11T13:15:43.875Z,8.77
2022-12-11T13:18:29.690Z,8.73
2022-12-11T13:20:56.952Z,9.63
2022-12-11T13:23:28.738Z,9.95
2022-12-11T13:26:00.476Z,9.52
2022-12-11T13:28:47.292Z,9.05
2022-12-11T13:31:14.675Z,10.40
2022-12-11T13:33:47.718Z,10.25
2022-12-11T13:36:18.933Z,9.25
2022-12-11T13:38:54.204Z,9.63
2022-12-11T13:41:21.778Z,9.35
2022-12-11T13:43:50.413Z,10.43
2022-12-11T13:46:21.981Z,9.75
2022-12-11T13:49:00.732Z,9.35
2022-12-11T13:51:29.618Z,9.43
2022-12-11T13:54:08.563Z,9.30
2022-12-11T13:56:37.174Z,10.02
2022-12-11T13:59:04.437Z,9.68
2022-12-11T14:01:33.631Z,10.60
2022-12-11T14:04:06.287Z,9.93
2022-12-11T14:06:34.218Z,9.20
2022-12-11T14:09:02.241Z,10.60
2022-12-11T14:11:31.933Z,9.52
2022-12-11T14:14:00.961Z,9.98
2022-12-11T14:16:28.679Z,9.40
2022-12-11T14:18:58.479Z,10.68
2022-12-11T14:21:26.332Z,10.48
2022-12-11T14:23:54.907Z,11.00
2022-12-11T14:26:25.956Z,10.35
2022-12-11T14:28:53.582Z,9.63
2022-12-11T14:31:26.944Z,10.32
2022-12-11T14:33:56.442Z,11.13
2022-12-11T14:36:24.056Z,10.30
2022-12-11T14:38:54.034Z,10.85
2022-12-11T14:41:23.808Z,9.82
2022-12-11T14:43:53.434Z,10.45
2022-12-11T14:48:56.067Z,10.15
2022-12-11T14:51:26.125Z,11.15
2022-12-11T14:53:54.347Z,11.48
2022-12-11T14:56:26.436Z,11.15
2022-12-11T14:58:56.308Z,10.65
2022-12-11T15:01:28.985Z,11.20
2022-12-11T15:04:22.612Z,10.27
2022-12-11T15:06:51.513Z,11.40
2022-12-11T15:09:18.853Z,10.80
2022-12-11T15:11:47.107Z,10.82
2022-12-11T15:14:14.887Z,11.60
2022-12-11T15:16:43.033Z,11.90
2022-12-11T15:19:18.913Z,11.80
2022-12-11T15:21:46.262Z,11.43
2022-12-11T15:24:23.640Z,11.13
2022-12-11T15:26:50.924Z,11.93
2022-12-11T15:29:31.117Z,12.57
2022-12-11T15:32:02.710Z,11.52
2022-12-11T15:34:42.545Z,11.52
2022-12-11T15:37:20.246Z,11.32
2022-12-11T15:39:47.587Z,10.73
2022-12-11T15:42:15.960Z,11.57
2022-12-11T15:44:43.258Z,12.02
2022-12-11T15:47:14.629Z,11.80
2022-12-11T15:49:42.532Z,11.07
2022-12-11T15:52:09.885Z,10.95
2022-12-11T15:54:37.543Z,11.15
2022-12-11T15:57:07.175Z,11.27
2022-12-11T16:02:01.602Z,11.52
2022-12-11T16:04:28.976Z,10.90
2022-12-11T16:06:56.787Z,10.93
2022-12-11T16:09:24.084Z,12.05
2022-12-11T16:11:51.340Z,10.73
2022-12-11T16:14:18.568Z,10.95
2022-12-11T16:16:45.826Z,11.85
2022-12-11T16:19:13.050Z,11.63
2022-12-11T16:21:40.328Z,11.27
2022-12-11T16:24:07.564Z,11.95
2022-12-11T16:26:34.840Z,11.43
2022-12-11T16:29:02.222Z,12.57
2022-12-11T16:31:29.572Z,12.88
2022-12-11T16:33:56.903Z,11.13
2022-12-11T16:36:24.287Z,12.75
2022-12-11T16:38:53.937Z,12.57
2022-12-11T16:41:23.042Z,12.80
2022-12-11T16:43:50.404Z,12.82
2022-12-11T16:46:21.868Z,12.73
2022-12-11T16:48:49.528Z,13.18
2022-12-11T16:51:16.939Z,12.60
2022-12-11T16:53:44.184Z,13.20
2022-12-11T16:56:11.453Z,13.52
2022-12-11T16:58:40.503Z,14.02
2022-12-11T17:01:14.823Z,13.20
2022-12-11T17:03:43.222Z,13.77
2022-12-11T17:06:11.371Z,13.43
2022-12-11T17:08:38.828Z,13.60
2022-12-11T17:11:07.089Z,14.00
2022-12-11T17:13:36.273Z,13.52
2022-12-11T17:16:08.146Z,13.00
2022-12-11T17:18:35.927Z,13.15
2022-12-11T17:21:22.917Z,13.18
2022-12-11T17:23:50.781Z,12.35
2022-12-11T17:26:18.334Z,12.25
2022-12-11T17:28:46.091Z,11.75
2022-12-11T17:31:15.108Z,11.82
2022-12-11T17:33:42.522Z,11.27
2022-12-11T17:36:10.032Z,11.88
2022-12-11T17:38:37.340Z,11.82
2022-12-11T17:41:08.463Z,11.90
2022-12-11T17:43:36.012Z,11.65
2022-12-11T17:46:05.200Z,11.98
2022-12-11T17:48:32.724Z,11.70
2022-12-11T17:51:03.079Z,12.25
2022-12-11T17:53:30.462Z,11.63
2022-12-11T17:56:00.389Z,11.88
2022-12-11T17:58:29.769Z,11.20
2022-12-11T18:00:58.139Z,11.65
2022-12-11T18:03:26.440Z,10.77
2022-12-11T18:05:55.123Z,10.52
2022-12-11T18:08:26.488Z,11.10
2022-12-11T18:10:54.324Z,10.98
2022-12-11T18:13:22.037Z,11.13
2022-12-11T18:16:00.094Z,12.07
2022-12-11T18:18:27.603Z,11.65
2022-12-11T18:20:54.938Z,11.35
2022-12-11T18:23:22.246Z,11.80
2022-12-11T18:25:49.503Z,11.80
2022-12-11T18:28:16.795Z,11.40
2022-12-11T18:30:44.012Z,11.40
2022-12-11T18:33:11.384Z,11.98
2022-12-11T18:35:38.668Z,11.82
2022-12-11T18:38:05.890Z,11.52
2022-12-11T18:40:35.807Z,11.05
2022-12-11T18:43:03.613Z,10.70
2022-12-11T18:45:30.911Z,10.23
2022-12-11T18:47:58.323Z,9.90
2022-12-11T18:50:26.241Z,10.73
2022-12-11T18:52:54.331Z,10.57
2022-12-11T18:55:21.828Z,10.80
2022-12-11T18:57:49.136Z,10.45
2022-12-11T19:00:17.542Z,10.65
2022-12-11T19:02:44.807Z,10.40
2022-12-11T19:05:13.032Z,10.02
2022-12-11T19:07:40.578Z,10.45
2022-12-11T19:10:07.998Z,9.27
2022-12-11T19:12:35.373Z,8.93
2022-12-11T19:15:02.741Z,10.57
2022-12-11T19:17:30.155Z,10.75
2022-12-11T19:19:57.483Z,9.82
2022-12-11T19:22:24.777Z,9.52
2022-12-11T19:24:52.058Z,10.18
2022-12-11T19:27:19.376Z,10.15
2022-12-11T19:29:46.591Z,10.57
2022-12-11T19:32:14.012Z,9.95
2022-12-11T19:34:41.285Z,10.55
2022-12-11T19:37:08.605Z,9.95
2022-12-11T19:39:36.016Z,10.20
2022-12-11T19:42:03.291Z,11.07
2022-12-11T19:44:32.416Z,11.48
2022-12-11T19:46:59.730Z,10.45
2022-12-11T19:49:26.990Z,10.52
2022-12-11T19:51:54.237Z,10.20
2022-12-11T19:54:21.694Z,9.98
2022-12-11T19:56:50.491Z,10.35
2022-12-11T19:59:18.227Z,10.15
2022-12-11T20:01:49.443Z,10.57
2022-12-11T20:04:17.749Z,10.40
2022-12-11T20:06:46.046Z,10.35
2022-12-11T20:09:14.030Z,10.13
2022-12-11T20:11:42.167Z,10.48
2022-12-11T20:14:09.784Z,9.90
2022-12-11T20:17:09.247Z,10.52
2022-12-11T20:19:24.801Z,10.85
2022-12-11T20:21:52.074Z,10.73
2022-12-11T20:24:19.343Z,11.60
2022-12-11T20:26:47.156Z,11.85
2022-12-11T20:29:14.580Z,11.35
2022-12-11T20:31:42.310Z,10.23
2022-12-11T20:34:09.692Z,11.63
2022-12-11T20:36:37.079Z,11.73
2022-12-11T20:39:05.126Z,11.98
2022-12-11T20:41:32.473Z,11.68
2022-12-11T20:43:59.784Z,13.20
2022-12-11T20:46:27.666Z,12.93
2022-12-11T20:48:56.337Z,12.35
2022-12-11T20:51:26.319Z,11.15
2022-12-11T20:54:01.210Z,12.40
2022-12-11T20:56:31.466Z,11.05
2022-12-11T20:58:59.916Z,12.32
2022-12-11T21:01:30.043Z,12.40
2022-12-11T21:03:57.412Z,11.60
2022-12-11T21:06:26.653Z,11.30
2022-12-11T21:08:54.086Z,11.25
2022-12-11T21:11:21.816Z,12.10
2022-12-11T21:13:51.020Z,11.45
2022-12-11T21:16:18.853Z,12.10
2022-12-11T21:18:47.079Z,12.77
2022-12-11T21:21:14.870Z,13.43
2022-12-11T21:23:42.233Z,14.02
2022-12-11T21:26:09.658Z,13.40
2022-12-11T21:28:37.011Z,12.65
2022-12-11T21:31:05.801Z,12.57
2022-12-11T21:33:33.179Z,12.55
2022-12-11T21:36:00.859Z,12.30
2022-12-11T21:38:29.489Z,10.50
2022-12-11T21:40:57.102Z,10.38
2022-12-11T21:43:24.818Z,10.90
2022-12-11T21:46:07.435Z,10.93
2022-12-11T21:48:34.930Z,10.63
2022-12-11T21:51:06.482Z,11.07
2022-12-11T21:53:33.807Z,10.52
2022-12-11T21:56:01.138Z,10.82
2022-12-11T21:58:28.391Z,10.70
2022-12-11T22:00:55.670Z,10.30
2022-12-11T22:03:22.975Z,10.02
2022-12-11T22:05:50.426Z,10.65
2022-12-11T22:08:17.769Z,10.52
2022-12-11T22:10:45.085Z,11.63
2022-12-11T22:13:12.419Z,11.38
2022-12-11T22:15:39.657Z,11.45
2022-12-11T22:18:07.211Z,11.77
2022-12-11T22:20:34.440Z,11.48
2022-12-11T22:23:01.686Z,11.20
2022-12-11T22:25:29.817Z,11.13
2022-12-11T22:27:57.058Z,10.93
2022-12-11T22:30:25.058Z,11.05
2022-12-11T22:32:52.366Z,11.43
2022-12-11T22:35:24.114Z,10.82
2022-12-11T22:37:54.214Z,10.32
2022-12-11T22:40:21.541Z,10.77
2022-12-11T22:42:48.887Z,10.73
2022-12-11T22:45:16.175Z,11.43
2022-12-11T22:47:43.430Z,11.20
2022-12-11T22:50:11.731Z,10.98
2022-12-11T22:52:39.140Z,12.25
2022-12-11T22:55:06.587Z,11.93
2022-12-11T22:57:36.263Z,11.57
2022-12-11T23:07:14.934Z,10.18
2022-12-11T23:09:42.266Z,10.02
2022-12-11T23:12:09.659Z,10.13
2022-12-11T23:14:36.925Z,9.73
2022-12-11T23:17:04.164Z,10.60
2022-12-11T23:19:31.650Z,10.25
2022-12-11T23:21:58.854Z,9.60
2022-12-11T23:24:26.048Z,9.23
2022-12-11T23:26:53.314Z,9.93
2022-12-11T23:29:20.727Z,9.00
2022-12-11T23:31:48.038Z,10.13
2022-12-11T23:34:15.336Z,9.95
2022-12-11T23:36:42.810Z,10.00
2022-12-11T23:39:10.083Z,9.55
2022-12-11T23:41:37.397Z,9.35
2022-12-11T23:44:05.185Z,9.63
2022-12-11T23:46:32.902Z,9.80
2022-12-11T23:49:00.175Z,9.95
2022-12-11T23:51:27.660Z,9.00
2022-12-11T23:53:55.149Z,10.25
2022-12-11T23:56:24.598Z,10.07
2022-12-11T23:58:51.986Z,9.35
